Forside
METAR-TAF:

METAR-TAF

Lufthavne :

Thule Air Base

Thule, Grønland

Breddekreds: 76-32N, længdekreds: 068-42W, højde: 77 m

Aktuelle vejr

Denne rapport blev lavet for 57 minutter siden, kl. 22:56 UTC
Vind 8 kt fra østsydøst
Temperatur -23°C
Fugtighed 63%
Tryk 984 hPa
Sigt 10 km eller mere
skyfri

METAR: BGTL 252256Z AUTO 12008KT 9999 CLR M23/M28 A2907 RMK AO2 SLP837 T12331278 TSNO $

Tid: 20:53 (23:53 UTC)

Vejrudsigter

Denne rapport blev lavet for 6 timer og 53 minutter siden, kl. 17:00 UTC
Foreløbig gælder fra 25 på 17 UTC til 26 på 23 UTC
Vind 9 kt fra øst, varierende mellem østnordøst og syd
Sigt 10 km eller mere
skyfri
ændring
fra 26 på 11 UTC til 26 på 12 UTC
Vind 9 kt fra øst
Sigt: 2611 m
Spredte skyer i en højde af 7000 ft

TAF: BGTL 251700Z 2517/2623 10009KT 9999 SKC QNH2904INS WND 070V170 BECMG 2611/2612 10009KT 9999 SCT070 QNH2925INS TXM18/2518Z TNM32/2607Z LAST NO AMDS AFT 2519 NEXT 2611

Vejrobservationer og prognoser fra mere end 4000 lufthavne (METAR og TAF).

De gule og røde prikker repræsenterer de meteorologiske stationer.

Flyt musen over at se navnet på stationen.

Så klik over at se vejr observationer og prognoser.

At skifte det kort: Klik på de grønne knapper med et sort kors for at zoome ind; på den grønne knap med en bindestreg for at zoome ud; eller på de grønne pile for tilstødende kort.


METAR-TAF: